sensor_id;sensor_type;location;lat;lon;timestamp;temperature;humidity
66057;DHT22;52842;52.666;5.202;2023-02-11T00:01:56;18.50;53.60
66057;DHT22;52842;52.666;5.202;2023-02-11T00:04:24;18.40;53.60
66057;DHT22;52842;52.666;5.202;2023-02-11T00:06:51;18.40;53.80
66057;DHT22;52842;52.666;5.202;2023-02-11T00:09:17;18.30;53.80
66057;DHT22;52842;52.666;5.202;2023-02-11T00:11:44;18.20;53.90
66057;DHT22;52842;52.666;5.202;2023-02-11T00:14:11;18.20;54.00
66057;DHT22;52842;52.666;5.202;2023-02-11T00:16:39;18.20;54.10
66057;DHT22;52842;52.666;5.202;2023-02-11T00:19:05;18.10;54.20
66057;DHT22;52842;52.666;5.202;2023-02-11T00:21:32;18.10;54.30
66057;DHT22;52842;52.666;5.202;2023-02-11T00:23:59;18.00;54.30
66057;DHT22;52842;52.666;5.202;2023-02-11T00:26:27;18.00;54.40
66057;DHT22;52842;52.666;5.202;2023-02-11T00:28:54;17.90;54.50
66057;DHT22;52842;52.666;5.202;2023-02-11T00:31:21;17.90;54.50
66057;DHT22;52842;52.666;5.202;2023-02-11T00:33:49;17.90;54.60
66057;DHT22;52842;52.666;5.202;2023-02-11T00:36:17;17.90;55.30
66057;DHT22;52842;52.666;5.202;2023-02-11T00:38:44;17.80;54.70
66057;DHT22;52842;52.666;5.202;2023-02-11T00:41:11;17.80;54.70
66057;DHT22;52842;52.666;5.202;2023-02-11T00:43:38;17.70;54.80
66057;DHT22;52842;52.666;5.202;2023-02-11T00:46:05;17.70;54.90
66057;DHT22;52842;52.666;5.202;2023-02-11T00:48:32;17.60;54.90
66057;DHT22;52842;52.666;5.202;2023-02-11T00:51:00;17.60;54.90
66057;DHT22;52842;52.666;5.202;2023-02-11T00:53:28;17.60;55.00
66057;DHT22;52842;52.666;5.202;2023-02-11T00:55:55;17.60;55.20
66057;DHT22;52842;52.666;5.202;2023-02-11T00:58:22;17.90;55.20
66057;DHT22;52842;52.666;5.202;2023-02-11T01:00:48;18.10;54.50
66057;DHT22;52842;52.666;5.202;2023-02-11T01:03:15;18.40;53.90
66057;DHT22;52842;52.666;5.202;2023-02-11T01:05:41;18.70;53.40
66057;DHT22;52842;52.666;5.202;2023-02-11T01:08:10;18.90;52.70
66057;DHT22;52842;52.666;5.202;2023-02-11T01:10:36;19.30;52.10
66057;DHT22;52842;52.666;5.202;2023-02-11T01:13:03;19.60;51.30
66057;DHT22;52842;52.666;5.202;2023-02-11T01:15:30;19.90;50.70
66057;DHT22;52842;52.666;5.202;2023-02-11T01:17:57;20.10;50.00
66057;DHT22;52842;52.666;5.202;2023-02-11T01:20:25;20.30;49.40
66057;DHT22;52842;52.666;5.202;2023-02-11T01:22:52;20.50;49.00
66057;DHT22;52842;52.666;5.202;2023-02-11T01:25:20;20.60;48.60
66057;DHT22;52842;52.666;5.202;2023-02-11T01:27:46;20.80;48.30
66057;DHT22;52842;52.666;5.202;2023-02-11T01:30:13;20.90;48.00
66057;DHT22;52842;52.666;5.202;2023-02-11T01:32:39;20.90;47.70
66057;DHT22;52842;52.666;5.202;2023-02-11T01:35:06;20.90;47.60
66057;DHT22;52842;52.666;5.202;2023-02-11T01:37:33;20.80;47.60
66057;DHT22;52842;52.666;5.202;2023-02-11T01:40:00;20.70;47.60
66057;DHT22;52842;52.666;5.202;2023-02-11T01:42:28;20.50;47.90
66057;DHT22;52842;52.666;5.202;2023-02-11T01:44:56;20.20;48.40
66057;DHT22;52842;52.666;5.202;2023-02-11T01:47:22;19.90;48.90
66057;DHT22;52842;52.666;5.202;2023-02-11T01:49:49;19.70;49.40
66057;DHT22;52842;52.666;5.202;2023-02-11T01:52:19;19.40;49.80
66057;DHT22;52842;52.666;5.202;2023-02-11T01:54:48;19.20;50.40
66057;DHT22;52842;52.666;5.202;2023-02-11T01:57:36;19.10;51.00
66057;DHT22;52842;52.666;5.202;2023-02-11T02:00:06;18.90;51.50
66057;DHT22;52842;52.666;5.202;2023-02-11T02:02:40;18.70;51.80
66057;DHT22;52842;52.666;5.202;2023-02-11T02:05:13;18.60;52.10
66057;DHT22;52842;52.666;5.202;2023-02-11T02:07:43;18.50;52.50
66057;DHT22;52842;52.666;5.202;2023-02-11T02:10:13;18.40;52.70
66057;DHT22;52842;52.666;5.202;2023-02-11T02:12:42;18.30;52.90
66057;DHT22;52842;52.666;5.202;2023-02-11T02:15:19;18.20;53.10
66057;DHT22;52842;52.666;5.202;2023-02-11T02:17:48;18.20;53.40
66057;DHT22;52842;52.666;5.202;2023-02-11T02:20:34;18.10;53.60
66057;DHT22;52842;52.666;5.202;2023-02-11T02:28:38;18.90;52.70
66057;DHT22;52842;52.666;5.202;2023-02-11T02:31:21;19.20;52.10
66057;DHT22;52842;52.666;5.202;2023-02-11T02:33:54;19.50;51.30
66057;DHT22;52842;52.666;5.202;2023-02-11T02:36:21;19.70;50.70
66057;DHT22;52842;52.666;5.202;2023-02-11T02:38:50;20.00;50.20
66057;DHT22;52842;52.666;5.202;2023-02-11T02:41:18;20.20;49.60
66057;DHT22;52842;52.666;5.202;2023-02-11T02:43:47;20.40;49.10
66057;DHT22;52842;52.666;5.202;2023-02-11T02:46:14;20.60;48.70
66057;DHT22;52842;52.666;5.202;2023-02-11T02:48:41;20.70;48.40
66057;DHT22;52842;52.666;5.202;2023-02-11T02:51:14;20.80;48.10
66057;DHT22;52842;52.666;5.202;2023-02-11T02:53:49;20.90;47.80
66057;DHT22;52842;52.666;5.202;2023-02-11T02:56:21;21.00;47.60
66057;DHT22;52842;52.666;5.202;2023-02-11T02:58:53;21.00;47.40
66057;DHT22;52842;52.666;5.202;2023-02-11T03:01:25;21.00;47.40
66057;DHT22;52842;52.666;5.202;2023-02-11T03:03:58;20.90;47.20
66057;DHT22;52842;52.666;5.202;2023-02-11T03:06:29;20.90;47.40
66057;DHT22;52842;52.666;5.202;2023-02-11T03:08:57;20.80;47.40
66057;DHT22;52842;52.666;5.202;2023-02-11T03:11:26;20.50;47.60
66057;DHT22;52842;52.666;5.202;2023-02-11T03:13:53;20.20;48.00
66057;DHT22;52842;52.666;5.202;2023-02-11T03:16:20;19.90;48.60
66057;DHT22;52842;52.666;5.202;2023-02-11T03:18:49;19.70;49.20
66057;DHT22;52842;52.666;5.202;2023-02-11T03:21:17;19.40;49.80
66057;DHT22;52842;52.666;5.202;2023-02-11T03:23:49;19.20;50.40
66057;DHT22;52842;52.666;5.202;2023-02-11T03:26:24;19.00;50.80
66057;DHT22;52842;52.666;5.202;2023-02-11T03:28:53;18.80;51.30
66057;DHT22;52842;52.666;5.202;2023-02-11T03:31:21;18.70;51.70
66057;DHT22;52842;52.666;5.202;2023-02-11T03:33:53;18.60;52.00
66057;DHT22;52842;52.666;5.202;2023-02-11T03:36:22;18.50;52.30
66057;DHT22;52842;52.666;5.202;2023-02-11T03:38:50;18.40;52.50
66057;DHT22;52842;52.666;5.202;2023-02-11T03:41:18;18.30;52.80
66057;DHT22;52842;52.666;5.202;2023-02-11T03:43:47;18.20;52.90
66057;DHT22;52842;52.666;5.202;2023-02-11T03:46:15;18.10;53.10
66057;DHT22;52842;52.666;5.202;2023-02-11T03:48:44;18.00;53.40
66057;DHT22;52842;52.666;5.202;2023-02-11T03:51:12;18.00;53.50
66057;DHT22;52842;52.666;5.202;2023-02-11T03:53:40;17.90;53.70
66057;DHT22;52842;52.666;5.202;2023-02-11T03:56:10;18.10;53.90
66057;DHT22;52842;52.666;5.202;2023-02-11T03:58:38;18.30;53.60
66057;DHT22;52842;52.666;5.202;2023-02-11T04:01:05;18.50;53.00
66057;DHT22;52842;52.666;5.202;2023-02-11T04:03:34;18.80;52.40
66057;DHT22;52842;52.666;5.202;2023-02-11T04:06:00;19.00;52.00
66057;DHT22;52842;52.666;5.202;2023-02-11T04:08:27;19.20;51.30
66057;DHT22;52842;52.666;5.202;2023-02-11T04:10:54;19.50;50.80
66057;DHT22;52842;52.666;5.202;2023-02-11T04:13:22;19.70;50.30
66057;DHT22;52842;52.666;5.202;2023-02-11T04:15:48;20.00;49.80
66057;DHT22;52842;52.666;5.202;2023-02-11T04:18:15;20.20;49.20
66057;DHT22;52842;52.666;5.202;2023-02-11T04:20:42;20.40;48.70
66057;DHT22;52842;52.666;5.202;2023-02-11T04:23:09;20.60;48.40
66057;DHT22;52842;52.666;5.202;2023-02-11T04:25:35;20.70;47.90
66057;DHT22;52842;52.666;5.202;2023-02-11T04:28:02;20.80;47.60
66057;DHT22;52842;52.666;5.202;2023-02-11T04:30:30;20.90;47.40
66057;DHT22;52842;52.666;5.202;2023-02-11T04:32:56;21.00;47.20
66057;DHT22;52842;52.666;5.202;2023-02-11T04:35:23;21.00;47.00
66057;DHT22;52842;52.666;5.202;2023-02-11T04:37:50;21.10;46.90
66057;DHT22;52842;52.666;5.202;2023-02-11T04:40:16;21.10;46.80
66057;DHT22;52842;52.666;5.202;2023-02-11T04:42:43;21.20;46.70
66057;DHT22;52842;52.666;5.202;2023-02-11T04:45:10;21.10;46.60
66057;DHT22;52842;52.666;5.202;2023-02-11T04:47:38;21.20;46.60
66057;DHT22;52842;52.666;5.202;2023-02-11T04:50:05;21.20;46.50
66057;DHT22;52842;52.666;5.202;2023-02-11T04:52:31;21.20;46.50
66057;DHT22;52842;52.666;5.202;2023-02-11T04:54:58;21.20;46.30
66057;DHT22;52842;52.666;5.202;2023-02-11T04:57:25;21.20;46.40
66057;DHT22;52842;52.666;5.202;2023-02-11T04:59:51;21.10;46.40
66057;DHT22;52842;52.666;5.202;2023-02-11T05:02:18;21.00;46.50
66057;DHT22;52842;52.666;5.202;2023-02-11T05:04:46;20.80;46.90
66057;DHT22;52842;52.666;5.202;2023-02-11T05:07:13;20.50;47.10
66057;DHT22;52842;52.666;5.202;2023-02-11T05:09:40;20.10;47.70
66057;DHT22;52842;52.666;5.202;2023-02-11T05:12:06;19.90;48.20
66057;DHT22;52842;52.666;5.202;2023-02-11T05:14:33;19.60;48.90
66057;DHT22;52842;52.666;5.202;2023-02-11T05:17:00;19.30;49.40
66057;DHT22;52842;52.666;5.202;2023-02-11T05:19:26;19.20;50.00
66057;DHT22;52842;52.666;5.202;2023-02-11T05:21:54;19.00;50.50
66057;DHT22;52842;52.666;5.202;2023-02-11T05:24:21;18.80;50.90
66057;DHT22;52842;52.666;5.202;2023-02-11T05:26:48;18.60;51.30
66057;DHT22;52842;52.666;5.202;2023-02-11T05:29:14;18.50;51.70
66057;DHT22;52842;52.666;5.202;2023-02-11T05:31:41;18.40;52.00
66057;DHT22;52842;52.666;5.202;2023-02-11T05:34:07;18.50;52.50
66057;DHT22;52842;52.666;5.202;2023-02-11T05:36:34;18.70;52.20
66057;DHT22;52842;52.666;5.202;2023-02-11T05:39:02;18.90;52.30
66057;DHT22;52842;52.666;5.202;2023-02-11T05:41:29;19.20;51.20
66057;DHT22;52842;52.666;5.202;2023-02-11T05:43:55;19.50;50.50
66057;DHT22;52842;52.666;5.202;2023-02-11T05:46:22;19.70;49.90
66057;DHT22;52842;52.666;5.202;2023-02-11T05:48:49;19.90;49.40
66057;DHT22;52842;52.666;5.202;2023-02-11T05:51:15;20.10;49.00
66057;DHT22;52842;52.666;5.202;2023-02-11T05:53:42;20.30;48.50
66057;DHT22;52842;52.666;5.202;2023-02-11T05:56:10;20.50;48.10
66057;DHT22;52842;52.666;5.202;2023-02-11T05:58:38;20.60;47.70
66057;DHT22;52842;52.666;5.202;2023-02-11T06:01:05;20.80;48.10
66057;DHT22;52842;52.666;5.202;2023-02-11T06:03:32;20.90;47.10
66057;DHT22;52842;52.666;5.202;2023-02-11T06:05:58;21.00;46.80
66057;DHT22;52842;52.666;5.202;2023-02-11T06:08:25;21.10;46.60
66057;DHT22;52842;52.666;5.202;2023-02-11T06:10:52;21.20;46.40
66057;DHT22;52842;52.666;5.202;2023-02-11T06:13:20;21.30;46.30
66057;DHT22;52842;52.666;5.202;2023-02-11T06:15:54;21.30;46.00
66057;DHT22;52842;52.666;5.202;2023-02-11T06:18:21;21.30;45.90
66057;DHT22;52842;52.666;5.202;2023-02-11T06:20:47;21.40;45.80
66057;DHT22;52842;52.666;5.202;2023-02-11T06:23:14;21.40;45.70
66057;DHT22;52842;52.666;5.202;2023-02-11T06:25:40;21.50;45.60
66057;DHT22;52842;52.666;5.202;2023-02-11T06:28:07;21.50;45.50
66057;DHT22;52842;52.666;5.202;2023-02-11T06:30:36;21.50;45.50
66057;DHT22;52842;52.666;5.202;2023-02-11T06:33:03;21.50;45.50
66057;DHT22;52842;52.666;5.202;2023-02-11T06:35:30;21.50;45.40
66057;DHT22;52842;52.666;5.202;2023-02-11T06:37:57;21.50;45.40
66057;DHT22;52842;52.666;5.202;2023-02-11T06:40:24;21.50;45.30
66057;DHT22;52842;52.666;5.202;2023-02-11T06:42:51;21.60;45.20
66057;DHT22;52842;52.666;5.202;2023-02-11T06:45:17;21.60;45.20
66057;DHT22;52842;52.666;5.202;2023-02-11T06:47:46;21.60;45.20
66057;DHT22;52842;52.666;5.202;2023-02-11T06:50:13;21.60;45.20
66057;DHT22;52842;52.666;5.202;2023-02-11T06:52:39;21.60;45.10
66057;DHT22;52842;52.666;5.202;2023-02-11T06:55:06;21.60;45.10
66057;DHT22;52842;52.666;5.202;2023-02-11T06:57:33;21.60;45.10
66057;DHT22;52842;52.666;5.202;2023-02-11T07:00:00;21.70;45.10
66057;DHT22;52842;52.666;5.202;2023-02-11T07:02:26;21.70;45.00
66057;DHT22;52842;52.666;5.202;2023-02-11T07:04:54;21.70;45.00
66057;DHT22;52842;52.666;5.202;2023-02-11T07:07:21;21.70;45.10
66057;DHT22;52842;52.666;5.202;2023-02-11T07:09:48;21.70;45.10
66057;DHT22;52842;52.666;5.202;2023-02-11T07:12:15;21.70;45.30
66057;DHT22;52842;52.666;5.202;2023-02-11T07:14:41;21.80;45.50
66057;DHT22;52842;52.666;5.202;2023-02-11T07:17:08;21.80;45.50
66057;DHT22;52842;52.666;5.202;2023-02-11T07:19:35;21.90;45.50
66057;DHT22;52842;52.666;5.202;2023-02-11T07:22:03;21.90;45.40
66057;DHT22;52842;52.666;5.202;2023-02-11T07:24:29;22.00;45.40
66057;DHT22;52842;52.666;5.202;2023-02-11T07:26:56;22.00;45.40
66057;DHT22;52842;52.666;5.202;2023-02-11T07:29:22;22.00;45.30
66057;DHT22;52842;52.666;5.202;2023-02-11T07:31:49;22.00;45.30
66057;DHT22;52842;52.666;5.202;2023-02-11T07:34:16;22.10;45.30
66057;DHT22;52842;52.666;5.202;2023-02-11T07:36:42;22.10;45.20
66057;DHT22;52842;52.666;5.202;2023-02-11T07:39:10;22.10;45.20
66057;DHT22;52842;52.666;5.202;2023-02-11T07:41:37;22.10;45.80
66057;DHT22;52842;52.666;5.202;2023-02-11T07:44:04;22.10;45.10
66057;DHT22;52842;52.666;5.202;2023-02-11T07:46:31;22.10;45.00
66057;DHT22;52842;52.666;5.202;2023-02-11T07:48:58;22.10;45.10
66057;DHT22;52842;52.666;5.202;2023-02-11T07:51:26;22.00;45.10
66057;DHT22;52842;52.666;5.202;2023-02-11T07:53:53;21.90;45.30
66057;DHT22;52842;52.666;5.202;2023-02-11T07:56:22;21.70;45.80
66057;DHT22;52842;52.666;5.202;2023-02-11T07:58:49;21.40;46.60
66057;DHT22;52842;52.666;5.202;2023-02-11T08:01:16;21.20;47.70
66057;DHT22;52842;52.666;5.202;2023-02-11T08:03:43;21.00;48.40
66057;DHT22;52842;52.666;5.202;2023-02-11T08:06:11;20.90;48.90
66057;DHT22;52842;52.666;5.202;2023-02-11T08:08:39;20.90;49.10
66057;DHT22;52842;52.666;5.202;2023-02-11T08:11:06;21.00;49.20
66057;DHT22;52842;52.666;5.202;2023-02-11T08:13:34;21.00;49.30
66057;DHT22;52842;52.666;5.202;2023-02-11T08:16:01;21.00;49.10
66057;DHT22;52842;52.666;5.202;2023-02-11T08:18:28;21.10;49.10
66057;DHT22;52842;52.666;5.202;2023-02-11T08:20:55;21.20;49.60
66057;DHT22;52842;52.666;5.202;2023-02-11T08:23:21;21.20;48.90
66057;DHT22;52842;52.666;5.202;2023-02-11T08:25:48;21.20;48.90
66057;DHT22;52842;52.666;5.202;2023-02-11T08:28:15;21.10;49.00
66057;DHT22;52842;52.666;5.202;2023-02-11T08:30:43;20.90;49.20
66057;DHT22;52842;52.666;5.202;2023-02-11T08:33:10;20.80;49.50
66057;DHT22;52842;52.666;5.202;2023-02-11T08:35:36;20.60;49.60
66057;DHT22;52842;52.666;5.202;2023-02-11T08:38:04;20.50;49.70
66057;DHT22;52842;52.666;5.202;2023-02-11T08:40:31;20.40;49.80
66057;DHT22;52842;52.666;5.202;2023-02-11T08:42:57;20.40;50.00
66057;DHT22;52842;52.666;5.202;2023-02-11T08:45:24;20.30;50.10
66057;DHT22;52842;52.666;5.202;2023-02-11T08:47:52;20.30;50.20
66057;DHT22;52842;52.666;5.202;2023-02-11T08:50:19;20.40;50.20
66057;DHT22;52842;52.666;5.202;2023-02-11T08:52:45;20.50;49.90
66057;DHT22;52842;52.666;5.202;2023-02-11T08:55:12;20.60;49.70
66057;DHT22;52842;52.666;5.202;2023-02-11T08:57:39;20.60;49.40
66057;DHT22;52842;52.666;5.202;2023-02-11T09:00:06;20.70;49.10
66057;DHT22;52842;52.666;5.202;2023-02-11T09:02:35;20.80;49.00
66057;DHT22;52842;52.666;5.202;2023-02-11T09:05:03;20.80;48.90
66057;DHT22;52842;52.666;5.202;2023-02-11T09:07:30;20.90;48.80
66057;DHT22;52842;52.666;5.202;2023-02-11T09:09:57;21.00;48.70
66057;DHT22;52842;52.666;5.202;2023-02-11T09:12:23;21.10;48.60
66057;DHT22;52842;52.666;5.202;2023-02-11T09:14:50;21.10;48.40
66057;DHT22;52842;52.666;5.202;2023-02-11T09:17:16;21.20;48.40
66057;DHT22;52842;52.666;5.202;2023-02-11T09:19:43;21.20;48.30
66057;DHT22;52842;52.666;5.202;2023-02-11T09:22:11;21.20;48.20
66057;DHT22;52842;52.666;5.202;2023-02-11T09:24:39;21.30;48.10
66057;DHT22;52842;52.666;5.202;2023-02-11T09:27:06;21.40;48.10
66057;DHT22;52842;52.666;5.202;2023-02-11T09:29:32;21.50;48.00
66057;DHT22;52842;52.666;5.202;2023-02-11T09:31:59;21.60;47.70
66057;DHT22;52842;52.666;5.202;2023-02-11T09:34:26;21.60;47.70
66057;DHT22;52842;52.666;5.202;2023-02-11T09:36:52;21.50;47.60
66057;DHT22;52842;52.666;5.202;2023-02-11T09:39:20;21.50;47.60
66057;DHT22;52842;52.666;5.202;2023-02-11T09:41:56;21.40;47.70
66057;DHT22;52842;52.666;5.202;2023-02-11T09:44:25;21.30;47.80
66057;DHT22;52842;52.666;5.202;2023-02-11T09:46:53;21.20;48.00
66057;DHT22;52842;52.666;5.202;2023-02-11T09:49:21;20.90;48.30
66057;DHT22;52842;52.666;5.202;2023-02-11T09:51:48;20.60;48.80
66057;DHT22;52842;52.666;5.202;2023-02-11T09:54:19;20.40;49.50
66057;DHT22;52842;52.666;5.202;2023-02-11T09:56:50;20.10;50.00
66057;DHT22;52842;52.666;5.202;2023-02-11T09:59:16;19.90;51.30
66057;DHT22;52842;52.666;5.202;2023-02-11T10:01:45;19.70;51.00
66057;DHT22;52842;52.666;5.202;2023-02-11T10:04:13;19.50;51.50
66057;DHT22;52842;52.666;5.202;2023-02-11T10:06:44;19.30;51.80
66057;DHT22;52842;52.666;5.202;2023-02-11T10:09:16;19.20;52.20
66057;DHT22;52842;52.666;5.202;2023-02-11T10:11:46;19.20;52.60
66057;DHT22;52842;52.666;5.202;2023-02-11T10:14:20;19.00;52.80
66057;DHT22;52842;52.666;5.202;2023-02-11T10:16:54;19.00;53.10
66057;DHT22;52842;52.666;5.202;2023-02-11T10:19:35;18.90;53.40
66057;DHT22;52842;52.666;5.202;2023-02-11T10:22:06;18.80;53.40
66057;DHT22;52842;52.666;5.202;2023-02-11T10:24:35;18.80;53.60
66057;DHT22;52842;52.666;5.202;2023-02-11T10:27:03;18.70;53.70
66057;DHT22;52842;52.666;5.202;2023-02-11T10:29:37;18.60;53.80
66057;DHT22;52842;52.666;5.202;2023-02-11T10:32:10;18.60;53.90
66057;DHT22;52842;52.666;5.202;2023-02-11T10:34:40;18.50;53.90
66057;DHT22;52842;52.666;5.202;2023-02-11T10:37:08;18.50;54.00
66057;DHT22;52842;52.666;5.202;2023-02-11T10:39:34;18.50;54.20
66057;DHT22;52842;52.666;5.202;2023-02-11T10:42:04;18.40;54.30
66057;DHT22;52842;52.666;5.202;2023-02-11T10:44:33;18.40;54.60
66057;DHT22;52842;52.666;5.202;2023-02-11T10:47:04;18.40;54.60
66057;DHT22;52842;52.666;5.202;2023-02-11T10:49:35;18.40;54.60
66057;DHT22;52842;52.666;5.202;2023-02-11T10:52:12;18.40;54.60
66057;DHT22;52842;52.666;5.202;2023-02-11T10:54:39;18.30;54.40
66057;DHT22;52842;52.666;5.202;2023-02-11T10:57:06;18.30;54.60
66057;DHT22;52842;52.666;5.202;2023-02-11T10:59:43;18.20;54.60
66057;DHT22;52842;52.666;5.202;2023-02-11T11:02:19;18.20;54.80
66057;DHT22;52842;52.666;5.202;2023-02-11T11:04:47;18.20;54.70
66057;DHT22;52842;52.666;5.202;2023-02-11T11:07:20;18.10;54.90
66057;DHT22;52842;52.666;5.202;2023-02-11T11:09:49;18.10;55.10
66057;DHT22;52842;52.666;5.202;2023-02-11T11:12:26;18.10;55.10
66057;DHT22;52842;52.666;5.202;2023-02-11T11:14:55;18.00;55.20
66057;DHT22;52842;52.666;5.202;2023-02-11T11:17:24;18.00;55.30
66057;DHT22;52842;52.666;5.202;2023-02-11T11:19:53;18.10;55.70
66057;DHT22;52842;52.666;5.202;2023-02-11T11:22:21;18.30;56.00
66057;DHT22;52842;52.666;5.202;2023-02-11T11:24:47;18.70;54.80
66057;DHT22;52842;52.666;5.202;2023-02-11T11:27:19;19.00;54.00
66057;DHT22;52842;52.666;5.202;2023-02-11T11:29:47;19.40;53.20
66057;DHT22;52842;52.666;5.202;2023-02-11T11:32:15;19.70;52.30
66057;DHT22;52842;52.666;5.202;2023-02-11T11:34:48;20.00;51.50
66057;DHT22;52842;52.666;5.202;2023-02-11T11:37:19;20.40;50.80
66057;DHT22;52842;52.666;5.202;2023-02-11T11:39:47;20.50;50.10
66057;DHT22;52842;52.666;5.202;2023-02-11T11:42:23;20.60;49.90
66057;DHT22;52842;52.666;5.202;2023-02-11T11:44:54;20.70;49.80
66057;DHT22;52842;52.666;5.202;2023-02-11T11:47:24;20.50;49.80
66057;DHT22;52842;52.666;5.202;2023-02-11T11:50:04;20.30;50.30
66057;DHT22;52842;52.666;5.202;2023-02-11T11:52:38;20.00;50.80
66057;DHT22;52842;52.666;5.202;2023-02-11T11:55:17;19.70;51.40
66057;DHT22;52842;52.666;5.202;2023-02-11T11:57:45;19.50;51.90
66057;DHT22;52842;52.666;5.202;2023-02-11T12:00:16;19.30;52.40
66057;DHT22;52842;52.666;5.202;2023-02-11T12:03:00;19.10;52.80
66057;DHT22;52842;52.666;5.202;2023-02-11T12:05:33;19.00;53.10
66057;DHT22;52842;52.666;5.202;2023-02-11T12:08:04;18.80;53.40
66057;DHT22;52842;52.666;5.202;2023-02-11T12:13:28;18.70;53.80
66057;DHT22;52842;52.666;5.202;2023-02-11T12:15:59;18.60;54.40
66057;DHT22;52842;52.666;5.202;2023-02-11T12:18:34;18.80;54.70
66057;DHT22;52842;52.666;5.202;2023-02-11T12:24:04;19.40;53.80
66057;DHT22;52842;52.666;5.202;2023-02-11T12:26:35;19.90;53.60
66057;DHT22;52842;52.666;5.202;2023-02-11T12:29:05;20.20;52.80
66057;DHT22;52842;52.666;5.202;2023-02-11T12:31:39;20.40;51.60
66057;DHT22;52842;52.666;5.202;2023-02-11T12:34:16;20.50;51.00
66057;DHT22;52842;52.666;5.202;2023-02-11T12:36:50;20.60;50.70
66057;DHT22;52842;52.666;5.202;2023-02-11T12:39:24;20.50;50.60
66057;DHT22;52842;52.666;5.202;2023-02-11T12:42:03;20.30;51.00
66057;DHT22;52842;52.666;5.202;2023-02-11T12:44:54;20.00;52.20
66057;DHT22;52842;52.666;5.202;2023-02-11T12:47:24;19.70;52.20
66057;DHT22;52842;52.666;5.202;2023-02-11T12:49:57;19.50;52.90
66057;DHT22;52842;52.666;5.202;2023-02-11T12:52:34;19.40;53.30
66057;DHT22;52842;52.666;5.202;2023-02-11T12:55:08;19.20;53.60
66057;DHT22;52842;52.666;5.202;2023-02-11T12:57:36;19.10;54.00
66057;DHT22;52842;52.666;5.202;2023-02-11T13:00:05;19.00;54.30
66057;DHT22;52842;52.666;5.202;2023-02-11T13:02:34;18.90;54.50
66057;DHT22;52842;52.666;5.202;2023-02-11T13:05:03;18.80;54.70
66057;DHT22;52842;52.666;5.202;2023-02-11T13:07:32;18.70;54.90
66057;DHT22;52842;52.666;5.202;2023-02-11T13:10:01;18.70;55.10
66057;DHT22;52842;52.666;5.202;2023-02-11T13:12:33;18.60;55.20
66057;DHT22;52842;52.666;5.202;2023-02-11T13:15:18;18.50;55.30
66057;DHT22;52842;52.666;5.202;2023-02-11T13:17:48;18.50;55.50
66057;DHT22;52842;52.666;5.202;2023-02-11T13:20:19;18.40;55.50
66057;DHT22;52842;52.666;5.202;2023-02-11T13:22:47;18.40;55.60
66057;DHT22;52842;52.666;5.202;2023-02-11T13:25:19;18.40;55.70
66057;DHT22;52842;52.666;5.202;2023-02-11T13:27:52;18.30;55.70
66057;DHT22;52842;52.666;5.202;2023-02-11T13:30:23;18.30;55.80
66057;DHT22;52842;52.666;5.202;2023-02-11T13:33:15;18.20;55.80
66057;DHT22;52842;52.666;5.202;2023-02-11T13:35:43;18.20;55.90
66057;DHT22;52842;52.666;5.202;2023-02-11T13:38:16;18.20;56.00
66057;DHT22;52842;52.666;5.202;2023-02-11T13:40:43;18.20;56.10
66057;DHT22;52842;52.666;5.202;2023-02-11T13:43:19;18.10;56.10
66057;DHT22;52842;52.666;5.202;2023-02-11T13:45:47;18.10;56.10
66057;DHT22;52842;52.666;5.202;2023-02-11T13:48:14;18.10;56.30
66057;DHT22;52842;52.666;5.202;2023-02-11T13:50:44;18.10;56.60
66057;DHT22;52842;52.666;5.202;2023-02-11T13:53:12;18.10;56.70
66057;DHT22;52842;52.666;5.202;2023-02-11T13:55:39;18.10;56.90
66057;DHT22;52842;52.666;5.202;2023-02-11T13:58:31;18.00;57.20
66057;DHT22;52842;52.666;5.202;2023-02-11T14:01:00;18.00;57.40
66057;DHT22;52842;52.666;5.202;2023-02-11T14:03:31;18.00;57.60
66057;DHT22;52842;52.666;5.202;2023-02-11T14:06:17;18.00;57.70
66057;DHT22;52842;52.666;5.202;2023-02-11T14:09:26;18.00;57.90
66057;DHT22;52842;52.666;5.202;2023-02-11T14:14:48;17.90;58.20
66057;DHT22;52842;52.666;5.202;2023-02-11T14:17:29;17.90;58.40
66057;DHT22;52842;52.666;5.202;2023-02-11T14:19:56;17.90;58.60
66057;DHT22;52842;52.666;5.202;2023-02-11T14:22:26;18.00;58.00
66057;DHT22;52842;52.666;5.202;2023-02-11T14:24:55;18.20;57.70
66057;DHT22;52842;52.666;5.202;2023-02-11T14:27:29;18.50;57.30
66057;DHT22;52842;52.666;5.202;2023-02-11T14:32:52;19.10;56.20
66057;DHT22;52842;52.666;5.202;2023-02-11T14:35:26;19.40;55.30
66057;DHT22;52842;52.666;5.202;2023-02-11T14:37:56;19.70;54.60
66057;DHT22;52842;52.666;5.202;2023-02-11T14:40:28;19.70;54.30
66057;DHT22;52842;52.666;5.202;2023-02-11T14:42:56;19.60;54.50
66057;DHT22;52842;52.666;5.202;2023-02-11T14:45:24;19.40;55.30
66057;DHT22;52842;52.666;5.202;2023-02-11T14:47:54;19.30;55.30
66057;DHT22;52842;52.666;5.202;2023-02-11T14:50:24;19.10;55.50
66057;DHT22;52842;52.666;5.202;2023-02-11T14:52:51;19.00;55.80
66057;DHT22;52842;52.666;5.202;2023-02-11T14:55:23;18.90;56.10
66057;DHT22;52842;52.666;5.202;2023-02-11T14:58:07;18.80;56.40
66057;DHT22;52842;52.666;5.202;2023-02-11T15:00:45;18.70;56.70
66057;DHT22;52842;52.666;5.202;2023-02-11T15:03:24;18.60;57.00
66057;DHT22;52842;52.666;5.202;2023-02-11T15:05:52;18.50;57.20
66057;DHT22;52842;52.666;5.202;2023-02-11T15:08:19;18.50;57.50
66057;DHT22;52842;52.666;5.202;2023-02-11T15:10:46;18.40;57.70
66057;DHT22;52842;52.666;5.202;2023-02-11T15:13:14;18.40;57.80
66057;DHT22;52842;52.666;5.202;2023-02-11T15:15:41;18.30;58.00
66057;DHT22;52842;52.666;5.202;2023-02-11T15:18:12;18.30;58.10
66057;DHT22;52842;52.666;5.202;2023-02-11T15:20:46;18.20;58.20
66057;DHT22;52842;52.666;5.202;2023-02-11T15:23:16;18.20;58.40
66057;DHT22;52842;52.666;5.202;2023-02-11T15:25:45;18.20;58.50
66057;DHT22;52842;52.666;5.202;2023-02-11T15:28:20;18.20;58.60
66057;DHT22;52842;52.666;5.202;2023-02-11T15:30:54;18.10;58.70
66057;DHT22;52842;52.666;5.202;2023-02-11T15:33:21;18.10;58.70
66057;DHT22;52842;52.666;5.202;2023-02-11T15:35:51;18.20;58.60
66057;DHT22;52842;52.666;5.202;2023-02-11T15:38:17;18.20;58.60
66057;DHT22;52842;52.666;5.202;2023-02-11T15:40:50;18.20;58.90
66057;DHT22;52842;52.666;5.202;2023-02-11T15:43:17;18.20;59.10
66057;DHT22;52842;52.666;5.202;2023-02-11T15:45:44;18.20;59.20
66057;DHT22;52842;52.666;5.202;2023-02-11T15:48:18;18.20;59.30
66057;DHT22;52842;52.666;5.202;2023-02-11T15:50:47;18.20;59.40
66057;DHT22;52842;52.666;5.202;2023-02-11T15:53:20;18.30;59.20
66057;DHT22;52842;52.666;5.202;2023-02-11T15:55:48;18.50;58.90
66057;DHT22;52842;52.666;5.202;2023-02-11T15:58:15;18.80;58.40
66057;DHT22;52842;52.666;5.202;2023-02-11T16:00:44;19.10;57.80